sensor_id;sensor_type;location;lat;lon;timestamp;P1;durP1;ratioP1;P2;durP2;ratioP2
23410;SDS011;11878;51.774;7.220;2023-02-28T00:02:19;5.27;;;2.60;;
23410;SDS011;11878;51.774;7.220;2023-02-28T00:05:22;5.63;;;1.93;;
23410;SDS011;11878;51.774;7.220;2023-02-28T00:08:25;3.27;;;2.03;;
23410;SDS011;11878;51.774;7.220;2023-02-28T00:11:28;5.17;;;2.50;;
23410;SDS011;11878;51.774;7.220;2023-02-28T00:14:30;4.90;;;2.03;;
23410;SDS011;11878;51.774;7.220;2023-02-28T00:17:31;4.80;;;2.67;;
23410;SDS011;11878;51.774;7.220;2023-02-28T00:20:33;4.03;;;2.37;;
23410;SDS011;11878;51.774;7.220;2023-02-28T00:23:35;4.57;;;2.37;;
23410;SDS011;11878;51.774;7.220;2023-02-28T00:26:37;6.13;;;2.73;;
23410;SDS011;11878;51.774;7.220;2023-02-28T00:29:39;8.67;;;2.90;;
23410;SDS011;11878;51.774;7.220;2023-02-28T00:32:40;7.10;;;2.93;;
23410;SDS011;11878;51.774;7.220;2023-02-28T00:35:42;9.87;;;3.03;;
23410;SDS011;11878;51.774;7.220;2023-02-28T00:38:47;5.17;;;2.60;;
23410;SDS011;11878;51.774;7.220;2023-02-28T00:41:49;6.27;;;2.60;;
23410;SDS011;11878;51.774;7.220;2023-02-28T00:44:50;8.27;;;3.10;;
23410;SDS011;11878;51.774;7.220;2023-02-28T00:47:52;6.20;;;3.10;;
23410;SDS011;11878;51.774;7.220;2023-02-28T00:50:54;14.23;;;5.37;;
23410;SDS011;11878;51.774;7.220;2023-02-28T00:53:56;8.57;;;4.90;;
23410;SDS011;11878;51.774;7.220;2023-02-28T00:56:58;11.63;;;3.60;;
23410;SDS011;11878;51.774;7.220;2023-02-28T01:00:00;3.97;;;2.57;;
23410;SDS011;11878;51.774;7.220;2023-02-28T01:03:01;7.80;;;3.23;;
23410;SDS011;11878;51.774;7.220;2023-02-28T01:06:03;3.40;;;2.30;;
23410;SDS011;11878;51.774;7.220;2023-02-28T01:09:06;6.73;;;2.63;;
23410;SDS011;11878;51.774;7.220;2023-02-28T01:12:08;7.23;;;2.87;;
23410;SDS011;11878;51.774;7.220;2023-02-28T01:15:10;4.50;;;2.00;;
23410;SDS011;11878;51.774;7.220;2023-02-28T01:18:12;3.80;;;2.47;;
23410;SDS011;11878;51.774;7.220;2023-02-28T01:21:15;7.33;;;2.40;;
23410;SDS011;11878;51.774;7.220;2023-02-28T01:24:18;5.33;;;2.13;;
23410;SDS011;11878;51.774;7.220;2023-02-28T01:27:20;7.67;;;2.60;;
23410;SDS011;11878;51.774;7.220;2023-02-28T01:30:22;4.90;;;2.47;;
23410;SDS011;11878;51.774;7.220;2023-02-28T01:33:23;3.27;;;2.20;;
23410;SDS011;11878;51.774;7.220;2023-02-28T01:36:26;7.43;;;2.20;;
23410;SDS011;11878;51.774;7.220;2023-02-28T01:39:29;6.13;;;2.90;;
23410;SDS011;11878;51.774;7.220;2023-02-28T01:42:31;4.40;;;2.20;;
23410;SDS011;11878;51.774;7.220;2023-02-28T01:45:33;9.60;;;2.53;;
23410;SDS011;11878;51.774;7.220;2023-02-28T01:48:38;3.67;;;1.73;;
23410;SDS011;11878;51.774;7.220;2023-02-28T01:51:54;2.70;;;1.63;;
23410;SDS011;11878;51.774;7.220;2023-02-28T01:54:59;4.93;;;2.13;;
23410;SDS011;11878;51.774;7.220;2023-02-28T01:58:04;5.67;;;2.47;;
23410;SDS011;11878;51.774;7.220;2023-02-28T02:01:07;3.37;;;2.07;;
23410;SDS011;11878;51.774;7.220;2023-02-28T02:04:08;2.90;;;1.90;;
23410;SDS011;11878;51.774;7.220;2023-02-28T02:07:10;3.67;;;2.07;;
23410;SDS011;11878;51.774;7.220;2023-02-28T02:10:52;5.30;;;2.20;;
23410;SDS011;11878;51.774;7.220;2023-02-28T02:14:04;2.70;;;1.90;;
23410;SDS011;11878;51.774;7.220;2023-02-28T02:17:25;3.60;;;1.73;;
23410;SDS011;11878;51.774;7.220;2023-02-28T02:24:03;3.27;;;1.90;;
23410;SDS011;11878;51.774;7.220;2023-02-28T02:34:42;7.40;;;1.90;;
23410;SDS011;11878;51.774;7.220;2023-02-28T02:38:19;4.57;;;1.80;;
23410;SDS011;11878;51.774;7.220;2023-02-28T02:41:35;3.23;;;1.83;;
23410;SDS011;11878;51.774;7.220;2023-02-28T02:44:48;5.47;;;1.73;;
23410;SDS011;11878;51.774;7.220;2023-02-28T02:47:57;4.77;;;2.00;;
23410;SDS011;11878;51.774;7.220;2023-02-28T02:51:04;5.63;;;2.13;;
23410;SDS011;11878;51.774;7.220;2023-02-28T02:54:19;2.70;;;1.73;;
23410;SDS011;11878;51.774;7.220;2023-02-28T02:57:26;5.10;;;1.83;;
23410;SDS011;11878;51.774;7.220;2023-02-28T03:00:42;2.20;;;1.57;;
23410;SDS011;11878;51.774;7.220;2023-02-28T03:03:48;6.03;;;1.83;;
23410;SDS011;11878;51.774;7.220;2023-02-28T03:06:51;4.33;;;1.80;;
23410;SDS011;11878;51.774;7.220;2023-02-28T03:09:56;4.50;;;2.13;;
23410;SDS011;11878;51.774;7.220;2023-02-28T03:13:02;7.60;;;2.87;;
23410;SDS011;11878;51.774;7.220;2023-02-28T03:19:55;7.23;;;2.60;;
23410;SDS011;11878;51.774;7.220;2023-02-28T03:23:16;4.23;;;2.13;;
23410;SDS011;11878;51.774;7.220;2023-02-28T03:26:24;12.13;;;2.80;;
23410;SDS011;11878;51.774;7.220;2023-02-28T03:29:32;2.40;;;1.80;;
23410;SDS011;11878;51.774;7.220;2023-02-28T03:40:01;3.43;;;2.23;;
23410;SDS011;11878;51.774;7.220;2023-02-28T03:43:15;4.60;;;1.73;;
23410;SDS011;11878;51.774;7.220;2023-02-28T03:46:27;4.63;;;2.07;;
23410;SDS011;11878;51.774;7.220;2023-02-28T03:49:36;9.63;;;3.00;;
23410;SDS011;11878;51.774;7.220;2023-02-28T03:59:28;4.67;;;2.60;;
23410;SDS011;11878;51.774;7.220;2023-02-28T04:02:35;7.47;;;2.50;;
23410;SDS011;11878;51.774;7.220;2023-02-28T04:09:13;3.07;;;1.67;;
23410;SDS011;11878;51.774;7.220;2023-02-28T04:12:16;3.40;;;1.80;;
23410;SDS011;11878;51.774;7.220;2023-02-28T04:15:17;3.60;;;1.90;;
23410;SDS011;11878;51.774;7.220;2023-02-28T04:18:23;6.10;;;2.10;;
23410;SDS011;11878;51.774;7.220;2023-02-28T04:21:25;3.03;;;1.83;;
23410;SDS011;11878;51.774;7.220;2023-02-28T04:24:28;3.60;;;1.90;;
23410;SDS011;11878;51.774;7.220;2023-02-28T04:27:30;3.20;;;1.40;;
23410;SDS011;11878;51.774;7.220;2023-02-28T04:30:33;7.80;;;2.00;;
23410;SDS011;11878;51.774;7.220;2023-02-28T04:33:34;3.87;;;2.20;;
23410;SDS011;11878;51.774;7.220;2023-02-28T04:36:36;6.07;;;1.90;;
23410;SDS011;11878;51.774;7.220;2023-02-28T04:39:38;4.50;;;1.97;;
23410;SDS011;11878;51.774;7.220;2023-02-28T04:42:40;6.27;;;2.27;;
23410;SDS011;11878;51.774;7.220;2023-02-28T04:45:42;3.30;;;2.40;;
23410;SDS011;11878;51.774;7.220;2023-02-28T04:48:44;3.63;;;2.30;;
23410;SDS011;11878;51.774;7.220;2023-02-28T04:51:45;6.97;;;3.13;;
23410;SDS011;11878;51.774;7.220;2023-02-28T04:54:47;6.57;;;2.87;;
23410;SDS011;11878;51.774;7.220;2023-02-28T04:57:49;7.37;;;2.80;;
23410;SDS011;11878;51.774;7.220;2023-02-28T05:00:51;5.57;;;2.60;;
23410;SDS011;11878;51.774;7.220;2023-02-28T05:03:54;6.57;;;3.57;;
23410;SDS011;11878;51.774;7.220;2023-02-28T05:06:57;6.83;;;3.87;;
23410;SDS011;11878;51.774;7.220;2023-02-28T05:09:59;6.13;;;3.57;;
23410;SDS011;11878;51.774;7.220;2023-02-28T05:13:00;7.80;;;3.03;;
23410;SDS011;11878;51.774;7.220;2023-02-28T05:16:03;6.57;;;3.43;;
23410;SDS011;11878;51.774;7.220;2023-02-28T05:19:05;5.73;;;3.07;;
23410;SDS011;11878;51.774;7.220;2023-02-28T05:22:11;6.97;;;2.83;;
23410;SDS011;11878;51.774;7.220;2023-02-28T05:25:16;10.87;;;3.70;;
23410;SDS011;11878;51.774;7.220;2023-02-28T05:28:19;13.80;;;4.20;;
23410;SDS011;11878;51.774;7.220;2023-02-28T05:31:21;12.37;;;4.63;;
23410;SDS011;11878;51.774;7.220;2023-02-28T05:34:23;10.43;;;4.60;;
23410;SDS011;11878;51.774;7.220;2023-02-28T05:37:25;11.03;;;4.30;;
23410;SDS011;11878;51.774;7.220;2023-02-28T05:40:27;15.07;;;5.43;;
23410;SDS011;11878;51.774;7.220;2023-02-28T05:43:29;14.27;;;5.63;;
23410;SDS011;11878;51.774;7.220;2023-02-28T05:46:30;12.97;;;5.43;;
23410;SDS011;11878;51.774;7.220;2023-02-28T05:49:32;14.60;;;5.90;;
23410;SDS011;11878;51.774;7.220;2023-02-28T05:52:34;8.47;;;4.57;;
23410;SDS011;11878;51.774;7.220;2023-02-28T05:55:36;8.07;;;4.87;;
23410;SDS011;11878;51.774;7.220;2023-02-28T05:58:38;12.77;;;4.53;;
23410;SDS011;11878;51.774;7.220;2023-02-28T06:01:41;7.77;;;4.27;;
23410;SDS011;11878;51.774;7.220;2023-02-28T06:04:49;6.80;;;3.17;;
23410;SDS011;11878;51.774;7.220;2023-02-28T06:07:50;7.17;;;3.13;;
23410;SDS011;11878;51.774;7.220;2023-02-28T06:10:52;6.93;;;3.53;;
23410;SDS011;11878;51.774;7.220;2023-02-28T06:13:54;7.17;;;3.43;;
23410;SDS011;11878;51.774;7.220;2023-02-28T06:17:00;7.50;;;4.13;;
23410;SDS011;11878;51.774;7.220;2023-02-28T06:20:04;7.97;;;4.33;;
23410;SDS011;11878;51.774;7.220;2023-02-28T06:23:06;17.90;;;5.10;;
23410;SDS011;11878;51.774;7.220;2023-02-28T06:26:08;10.27;;;5.23;;
23410;SDS011;11878;51.774;7.220;2023-02-28T06:29:10;13.87;;;4.67;;
23410;SDS011;11878;51.774;7.220;2023-02-28T06:32:12;9.17;;;3.73;;
23410;SDS011;11878;51.774;7.220;2023-02-28T06:35:14;11.43;;;4.10;;
23410;SDS011;11878;51.774;7.220;2023-02-28T06:38:16;5.40;;;2.77;;
23410;SDS011;11878;51.774;7.220;2023-02-28T06:41:19;7.50;;;4.03;;
23410;SDS011;11878;51.774;7.220;2023-02-28T06:44:22;7.90;;;3.50;;
23410;SDS011;11878;51.774;7.220;2023-02-28T06:47:24;12.40;;;4.10;;
23410;SDS011;11878;51.774;7.220;2023-02-28T06:50:26;10.83;;;5.87;;
23410;SDS011;11878;51.774;7.220;2023-02-28T06:53:30;15.67;;;6.53;;
23410;SDS011;11878;51.774;7.220;2023-02-28T06:56:32;14.80;;;7.00;;
23410;SDS011;11878;51.774;7.220;2023-02-28T06:59:34;17.17;;;7.67;;
23410;SDS011;11878;51.774;7.220;2023-02-28T07:02:36;15.13;;;5.00;;
23410;SDS011;11878;51.774;7.220;2023-02-28T07:05:38;9.10;;;4.10;;
23410;SDS011;11878;51.774;7.220;2023-02-28T07:08:40;8.90;;;3.30;;
23410;SDS011;11878;51.774;7.220;2023-02-28T07:11:42;10.50;;;3.23;;
23410;SDS011;11878;51.774;7.220;2023-02-28T07:14:44;13.37;;;4.03;;
23410;SDS011;11878;51.774;7.220;2023-02-28T07:17:46;11.07;;;5.90;;
23410;SDS011;11878;51.774;7.220;2023-02-28T07:20:48;10.60;;;6.07;;
23410;SDS011;11878;51.774;7.220;2023-02-28T07:23:50;13.70;;;6.87;;
23410;SDS011;11878;51.774;7.220;2023-02-28T07:26:52;12.70;;;6.80;;
23410;SDS011;11878;51.774;7.220;2023-02-28T07:29:54;9.80;;;5.07;;
23410;SDS011;11878;51.774;7.220;2023-02-28T07:32:56;10.30;;;5.47;;
23410;SDS011;11878;51.774;7.220;2023-02-28T07:36:02;18.97;;;7.03;;
23410;SDS011;11878;51.774;7.220;2023-02-28T07:39:16;23.23;;;8.73;;
23410;SDS011;11878;51.774;7.220;2023-02-28T07:42:17;18.53;;;8.77;;
23410;SDS011;11878;51.774;7.220;2023-02-28T07:45:19;10.93;;;5.77;;
23410;SDS011;11878;51.774;7.220;2023-02-28T07:48:21;10.93;;;5.40;;
23410;SDS011;11878;51.774;7.220;2023-02-28T07:51:23;7.57;;;4.20;;
23410;SDS011;11878;51.774;7.220;2023-02-28T07:54:24;8.90;;;3.40;;
23410;SDS011;11878;51.774;7.220;2023-02-28T07:57:26;8.33;;;3.27;;
23410;SDS011;11878;51.774;7.220;2023-02-28T08:00:28;6.20;;;3.03;;
23410;SDS011;11878;51.774;7.220;2023-02-28T08:03:30;11.90;;;3.67;;
23410;SDS011;11878;51.774;7.220;2023-02-28T08:06:32;7.47;;;3.20;;
23410;SDS011;11878;51.774;7.220;2023-02-28T08:09:33;4.47;;;2.73;;
23410;SDS011;11878;51.774;7.220;2023-02-28T08:12:35;13.37;;;3.17;;
23410;SDS011;11878;51.774;7.220;2023-02-28T08:15:37;4.73;;;2.80;;
23410;SDS011;11878;51.774;7.220;2023-02-28T08:18:39;7.53;;;2.77;;
23410;SDS011;11878;51.774;7.220;2023-02-28T08:21:41;4.73;;;2.60;;
23410;SDS011;11878;51.774;7.220;2023-02-28T08:24:42;6.73;;;3.07;;
23410;SDS011;11878;51.774;7.220;2023-02-28T08:27:44;8.33;;;2.33;;
23410;SDS011;11878;51.774;7.220;2023-02-28T08:30:46;5.00;;;2.00;;
23410;SDS011;11878;51.774;7.220;2023-02-28T08:33:48;4.63;;;2.33;;
23410;SDS011;11878;51.774;7.220;2023-02-28T08:36:52;5.10;;;1.83;;
23410;SDS011;11878;51.774;7.220;2023-02-28T08:39:54;3.67;;;2.67;;
23410;SDS011;11878;51.774;7.220;2023-02-28T08:42:56;4.27;;;2.43;;
23410;SDS011;11878;51.774;7.220;2023-02-28T08:45:59;5.87;;;2.47;;
23410;SDS011;11878;51.774;7.220;2023-02-28T08:49:01;3.93;;;1.97;;
23410;SDS011;11878;51.774;7.220;2023-02-28T08:52:03;4.87;;;2.37;;
23410;SDS011;11878;51.774;7.220;2023-02-28T08:55:05;6.30;;;2.10;;
23410;SDS011;11878;51.774;7.220;2023-02-28T08:58:07;4.00;;;1.70;;
23410;SDS011;11878;51.774;7.220;2023-02-28T09:01:09;5.70;;;2.30;;
23410;SDS011;11878;51.774;7.220;2023-02-28T09:04:13;4.30;;;2.10;;
23410;SDS011;11878;51.774;7.220;2023-02-28T09:07:20;5.00;;;1.90;;
23410;SDS011;11878;51.774;7.220;2023-02-28T09:10:22;7.17;;;1.97;;
23410;SDS011;11878;51.774;7.220;2023-02-28T09:13:24;9.83;;;2.10;;
23410;SDS011;11878;51.774;7.220;2023-02-28T09:16:27;4.93;;;1.83;;
23410;SDS011;11878;51.774;7.220;2023-02-28T09:19:29;2.13;;;1.43;;
23410;SDS011;11878;51.774;7.220;2023-02-28T09:22:31;2.10;;;1.47;;
23410;SDS011;11878;51.774;7.220;2023-02-28T09:25:33;6.07;;;1.70;;
23410;SDS011;11878;51.774;7.220;2023-02-28T09:28:35;5.53;;;1.53;;
23410;SDS011;11878;51.774;7.220;2023-02-28T09:31:37;5.13;;;1.23;;
23410;SDS011;11878;51.774;7.220;2023-02-28T09:34:39;2.03;;;1.13;;
23410;SDS011;11878;51.774;7.220;2023-02-28T09:37:41;1.63;;;1.10;;
23410;SDS011;11878;51.774;7.220;2023-02-28T09:43:56;1.90;;;1.03;;
23410;SDS011;11878;51.774;7.220;2023-02-28T09:47:05;2.33;;;1.00;;
23410;SDS011;11878;51.774;7.220;2023-02-28T09:50:17;2.27;;;1.10;;
23410;SDS011;11878;51.774;7.220;2023-02-28T09:53:34;1.80;;;0.93;;
23410;SDS011;11878;51.774;7.220;2023-02-28T09:56:41;1.80;;;0.83;;
23410;SDS011;11878;51.774;7.220;2023-02-28T10:00:03;3.37;;;1.17;;
23410;SDS011;11878;51.774;7.220;2023-02-28T10:03:18;1.43;;;0.90;;
23410;SDS011;11878;51.774;7.220;2023-02-28T10:06:36;0.90;;;0.70;;
23410;SDS011;11878;51.774;7.220;2023-02-28T10:09:51;1.97;;;0.80;;
23410;SDS011;11878;51.774;7.220;2023-02-28T10:12:56;2.23;;;0.90;;
23410;SDS011;11878;51.774;7.220;2023-02-28T10:16:07;2.63;;;1.00;;
23410;SDS011;11878;51.774;7.220;2023-02-28T10:19:16;1.53;;;0.90;;
23410;SDS011;11878;51.774;7.220;2023-02-28T10:22:28;2.00;;;1.23;;
23410;SDS011;11878;51.774;7.220;2023-02-28T10:25:58;3.80;;;0.87;;
23410;SDS011;11878;51.774;7.220;2023-02-28T10:29:02;1.40;;;0.70;;
23410;SDS011;11878;51.774;7.220;2023-02-28T10:32:04;2.60;;;1.00;;
23410;SDS011;11878;51.774;7.220;2023-02-28T10:35:10;2.07;;;0.90;;
23410;SDS011;11878;51.774;7.220;2023-02-28T10:38:50;1.93;;;0.87;;
23410;SDS011;11878;51.774;7.220;2023-02-28T10:41:45;1.83;;;0.97;;
23410;SDS011;11878;51.774;7.220;2023-02-28T10:44:48;2.20;;;0.87;;
23410;SDS011;11878;51.774;7.220;2023-02-28T10:47:59;1.17;;;0.90;;
23410;SDS011;11878;51.774;7.220;2023-02-28T10:51:07;1.87;;;0.80;;
23410;SDS011;11878;51.774;7.220;2023-02-28T10:54:30;1.67;;;0.90;;
23410;SDS011;11878;51.774;7.220;2023-02-28T10:57:36;1.60;;;0.90;;
23410;SDS011;11878;51.774;7.220;2023-02-28T11:00:38;2.53;;;0.90;;
23410;SDS011;11878;51.774;7.220;2023-02-28T11:03:40;1.20;;;1.03;;
23410;SDS011;11878;51.774;7.220;2023-02-28T11:06:42;3.10;;;0.90;;
23410;SDS011;11878;51.774;7.220;2023-02-28T11:09:48;2.90;;;1.20;;
23410;SDS011;11878;51.774;7.220;2023-02-28T11:12:55;2.80;;;1.00;;
23410;SDS011;11878;51.774;7.220;2023-02-28T11:16:02;1.73;;;0.93;;
23410;SDS011;11878;51.774;7.220;2023-02-28T11:19:06;1.93;;;1.20;;
23410;SDS011;11878;51.774;7.220;2023-02-28T11:22:27;1.67;;;1.00;;
23410;SDS011;11878;51.774;7.220;2023-02-28T11:25:31;2.03;;;0.90;;
23410;SDS011;11878;51.774;7.220;2023-02-28T11:28:38;1.87;;;0.80;;
23410;SDS011;11878;51.774;7.220;2023-02-28T11:31:41;2.33;;;0.93;;
23410;SDS011;11878;51.774;7.220;2023-02-28T11:34:43;1.53;;;0.80;;
23410;SDS011;11878;51.774;7.220;2023-02-28T11:37:45;2.57;;;1.00;;
23410;SDS011;11878;51.774;7.220;2023-02-28T11:44:05;2.20;;;1.30;;
23410;SDS011;11878;51.774;7.220;2023-02-28T12:01:03;2.10;;;1.00;;
23410;SDS011;11878;51.774;7.220;2023-02-28T12:04:24;2.23;;;1.40;;
23410;SDS011;11878;51.774;7.220;2023-02-28T12:07:49;1.57;;;1.10;;
23410;SDS011;11878;51.774;7.220;2023-02-28T12:11:19;2.40;;;1.23;;
23410;SDS011;11878;51.774;7.220;2023-02-28T12:21:24;1.23;;;0.97;;
23410;SDS011;11878;51.774;7.220;2023-02-28T12:28:12;1.30;;;1.03;;
23410;SDS011;11878;51.774;7.220;2023-02-28T12:31:26;8.83;;;1.30;;
23410;SDS011;11878;51.774;7.220;2023-02-28T12:34:42;3.10;;;0.90;;
23410;SDS011;11878;51.774;7.220;2023-02-28T12:38:31;1.70;;;1.20;;
23410;SDS011;11878;51.774;7.220;2023-02-28T12:44:34;3.23;;;1.20;;
23410;SDS011;11878;51.774;7.220;2023-02-28T12:47:42;4.27;;;1.53;;
23410;SDS011;11878;51.774;7.220;2023-02-28T12:50:47;2.53;;;1.10;;
23410;SDS011;11878;51.774;7.220;2023-02-28T12:57:41;2.50;;;0.93;;
23410;SDS011;11878;51.774;7.220;2023-02-28T13:01:12;4.43;;;1.10;;
23410;SDS011;11878;51.774;7.220;2023-02-28T13:04:46;1.93;;;1.20;;
23410;SDS011;11878;51.774;7.220;2023-02-28T13:11:24;1.67;;;1.23;;
23410;SDS011;11878;51.774;7.220;2023-02-28T13:17:33;1.83;;;1.20;;
23410;SDS011;11878;51.774;7.220;2023-02-28T13:20:36;2.70;;;1.20;;
23410;SDS011;11878;51.774;7.220;2023-02-28T13:40:30;1.63;;;1.20;;
23410;SDS011;11878;51.774;7.220;2023-02-28T13:44:02;2.23;;;1.07;;
23410;SDS011;11878;51.774;7.220;2023-02-28T13:50:14;6.50;;;1.50;;
23410;SDS011;11878;51.774;7.220;2023-02-28T13:53:24;2.53;;;1.13;;
23410;SDS011;11878;51.774;7.220;2023-02-28T13:56:35;2.20;;;1.20;;
23410;SDS011;11878;51.774;7.220;2023-02-28T14:00:21;3.27;;;1.47;;
23410;SDS011;11878;51.774;7.220;2023-02-28T14:07:16;6.83;;;1.13;;
23410;SDS011;11878;51.774;7.220;2023-02-28T14:10:28;2.23;;;1.07;;
23410;SDS011;11878;51.774;7.220;2023-02-28T14:16:46;4.33;;;1.20;;
23410;SDS011;11878;51.774;7.220;2023-02-28T14:19:51;1.97;;;1.30;;
23410;SDS011;11878;51.774;7.220;2023-02-28T14:23:06;2.53;;;1.00;;
23410;SDS011;11878;51.774;7.220;2023-02-28T14:26:27;4.17;;;1.47;;
23410;SDS011;11878;51.774;7.220;2023-02-28T14:32:58;3.60;;;1.50;;
23410;SDS011;11878;51.774;7.220;2023-02-28T14:36:16;1.85;;;1.10;;
23410;SDS011;11878;51.774;7.220;2023-02-28T14:39:20;3.03;;;1.17;;
23410;SDS011;11878;51.774;7.220;2023-02-28T14:42:32;2.47;;;1.40;;
23410;SDS011;11878;51.774;7.220;2023-02-28T14:45:36;1.80;;;1.00;;
23410;SDS011;11878;51.774;7.220;2023-02-28T14:48:38;2.10;;;0.98;;
23410;SDS011;11878;51.774;7.220;2023-02-28T14:51:40;3.85;;;1.27;;
23410;SDS011;11878;51.774;7.220;2023-02-28T14:54:43;4.63;;;1.30;;
23410;SDS011;11878;51.774;7.220;2023-02-28T14:57:53;1.25;;;0.85;;
23410;SDS011;11878;51.774;7.220;2023-02-28T15:01:00;2.47;;;1.15;;
23410;SDS011;11878;51.774;7.220;2023-02-28T15:04:04;2.22;;;1.20;;
23410;SDS011;11878;51.774;7.220;2023-02-28T15:07:08;3.47;;;1.50;;
23410;SDS011;11878;51.774;7.220;2023-02-28T15:13:26;2.63;;;1.17;;
23410;SDS011;11878;51.774;7.220;2023-02-28T15:16:37;2.10;;;1.20;;
23410;SDS011;11878;51.774;7.220;2023-02-28T15:19:43;3.53;;;1.20;;
23410;SDS011;11878;51.774;7.220;2023-02-28T15:22:50;2.37;;;1.10;;
23410;SDS011;11878;51.774;7.220;2023-02-28T15:25:53;4.07;;;1.30;;
23410;SDS011;11878;51.774;7.220;2023-02-28T15:29:00;3.43;;;0.90;;
23410;SDS011;11878;51.774;7.220;2023-02-28T15:32:06;3.10;;;1.10;;
23410;SDS011;11878;51.774;7.220;2023-02-28T15:38:26;3.45;;;1.58;;
23410;SDS011;11878;51.774;7.220;2023-02-28T15:41:29;2.10;;;1.08;;
23410;SDS011;11878;51.774;7.220;2023-02-28T16:34:17;2.53;;;1.20;;
23410;SDS011;11878;51.774;7.220;2023-02-28T16:37:18;3.10;;;1.70;;
23410;SDS011;11878;51.774;7.220;2023-02-28T16:40:21;4.63;;;1.63;;
23410;SDS011;11878;51.774;7.220;2023-02-28T16:43:26;4.27;;;1.67;;
23410;SDS011;11878;51.774;7.220;2023-02-28T16:46:34;4.83;;;1.77;;
23410;SDS011;11878;51.774;7.220;2023-02-28T16:49:36;4.53;;;1.83;;
23410;SDS011;11878;51.774;7.220;2023-02-28T16:52:38;2.57;;;1.57;;
23410;SDS011;11878;51.774;7.220;2023-02-28T16:55:39;7.23;;;1.93;;
23410;SDS011;11878;51.774;7.220;2023-02-28T16:58:41;3.77;;;2.87;;
23410;SDS011;11878;51.774;7.220;2023-02-28T17:01:43;5.27;;;2.03;;
23410;SDS011;11878;51.774;7.220;2023-02-28T17:04:45;2.77;;;1.50;;
23410;SDS011;11878;51.774;7.220;2023-02-28T17:07:47;8.83;;;1.80;;
23410;SDS011;11878;51.774;7.220;2023-02-28T17:10:50;2.90;;;1.87;;
23410;SDS011;11878;51.774;7.220;2023-02-28T17:13:52;4.53;;;1.83;;
23410;SDS011;11878;51.774;7.220;2023-02-28T17:16:55;4.90;;;1.90;;
23410;SDS011;11878;51.774;7.220;2023-02-28T17:19:57;5.93;;;1.87;;
23410;SDS011;11878;51.774;7.220;2023-02-28T17:22:58;3.00;;;1.50;;
23410;SDS011;11878;51.774;7.220;2023-02-28T17:26:01;3.10;;;1.70;;
23410;SDS011;11878;51.774;7.220;2023-02-28T17:29:20;3.20;;;1.70;;
23410;SDS011;11878;51.774;7.220;2023-02-28T17:32:22;2.83;;;1.70;;
23410;SDS011;11878;51.774;7.220;2023-02-28T17:35:25;4.37;;;1.60;;
23410;SDS011;11878;51.774;7.220;2023-02-28T17:38:27;11.77;;;2.30;;
23410;SDS011;11878;51.774;7.220;2023-02-28T17:41:29;5.60;;;2.80;;
23410;SDS011;11878;51.774;7.220;2023-02-28T17:44:31;5.27;;;3.03;;
23410;SDS011;11878;51.774;7.220;2023-02-28T17:47:33;7.30;;;4.30;;
23410;SDS011;11878;51.774;7.220;2023-02-28T17:50:35;9.47;;;4.90;;
23410;SDS011;11878;51.774;7.220;2023-02-28T17:53:37;9.13;;;4.57;;
23410;SDS011;11878;51.774;7.220;2023-02-28T17:56:38;13.63;;;6.30;;
23410;SDS011;11878;51.774;7.220;2023-02-28T17:59:41;10.03;;;5.37;;
23410;SDS011;11878;51.774;7.220;2023-02-28T18:02:43;11.63;;;5.13;;
23410;SDS011;11878;51.774;7.220;2023-02-28T18:05:46;7.37;;;4.60;;
23410;SDS011;11878;51.774;7.220;2023-02-28T18:08:48;7.00;;;3.43;;
23410;SDS011;11878;51.774;7.220;2023-02-28T18:11:50;5.97;;;3.23;;
23410;SDS011;11878;51.774;7.220;2023-02-28T18:14:53;5.33;;;3.17;;
23410;SDS011;11878;51.774;7.220;2023-02-28T18:17:54;4.43;;;3.00;;
23410;SDS011;11878;51.774;7.220;2023-02-28T18:20:56;8.20;;;2.90;;
23410;SDS011;11878;51.774;7.220;2023-02-28T18:23:58;6.43;;;3.53;;
23410;SDS011;11878;51.774;7.220;2023-02-28T18:27:00;8.00;;;3.93;;
23410;SDS011;11878;51.774;7.220;2023-02-28T18:30:02;8.87;;;4.93;;
23410;SDS011;11878;51.774;7.220;2023-02-28T18:33:05;6.53;;;4.33;;
23410;SDS011;11878;51.774;7.220;2023-02-28T18:36:07;7.73;;;4.27;;
23410;SDS011;11878;51.774;7.220;2023-02-28T18:39:09;7.77;;;4.00;;
23410;SDS011;11878;51.774;7.220;2023-02-28T18:42:12;7.67;;;4.10;;
23410;SDS011;11878;51.774;7.220;2023-02-28T18:45:14;11.47;;;4.57;;
23410;SDS011;11878;51.774;7.220;2023-02-28T18:48:15;10.43;;;5.40;;
23410;SDS011;11878;51.774;7.220;2023-02-28T18:51:21;12.23;;;6.00;;
23410;SDS011;11878;51.774;7.220;2023-02-28T18:54:24;16.33;;;6.90;;
23410;SDS011;11878;51.774;7.220;2023-02-28T18:57:27;11.87;;;6.40;;
23410;SDS011;11878;51.774;7.220;2023-02-28T19:00:29;9.03;;;4.50;;
23410;SDS011;11878;51.774;7.220;2023-02-28T19:03:31;9.87;;;4.80;;
23410;SDS011;11878;51.774;7.220;2023-02-28T19:06:33;6.87;;;4.40;;
23410;SDS011;11878;51.774;7.220;2023-02-28T19:09:36;6.23;;;3.40;;
23410;SDS011;11878;51.774;7.220;2023-02-28T19:12:38;8.63;;;4.53;;
23410;SDS011;11878;51.774;7.220;2023-02-28T19:15:42;6.27;;;3.10;;
23410;SDS011;11878;51.774;7.220;2023-02-28T19:18:44;8.37;;;4.53;;
23410;SDS011;11878;51.774;7.220;2023-02-28T19:21:46;6.93;;;4.67;;
23410;SDS011;11878;51.774;7.220;2023-02-28T19:24:48;9.77;;;4.90;;
23410;SDS011;11878;51.774;7.220;2023-02-28T19:27:51;8.43;;;4.73;;
23410;SDS011;11878;51.774;7.220;2023-02-28T19:30:54;7.93;;;4.97;;
23410;SDS011;11878;51.774;7.220;2023-02-28T19:33:55;13.57;;;6.10;;
23410;SDS011;11878;51.774;7.220;2023-02-28T19:36:59;9.57;;;4.83;;
23410;SDS011;11878;51.774;7.220;2023-02-28T19:40:01;8.97;;;4.73;;
23410;SDS011;11878;51.774;7.220;2023-02-28T19:43:03;11.20;;;5.23;;
23410;SDS011;11878;51.774;7.220;2023-02-28T19:46:06;10.13;;;4.83;;
23410;SDS011;11878;51.774;7.220;2023-02-28T19:49:09;11.70;;;5.43;;
23410;SDS011;11878;51.774;7.220;2023-02-28T19:52:13;15.40;;;6.57;;
23410;SDS011;11878;51.774;7.220;2023-02-28T19:55:16;30.73;;;12.27;;
23410;SDS011;11878;51.774;7.220;2023-02-28T19:58:19;20.93;;;9.00;;
23410;SDS011;11878;51.774;7.220;2023-02-28T20:01:21;13.77;;;6.77;;
23410;SDS011;11878;51.774;7.220;2023-02-28T20:04:23;14.33;;;8.03;;
23410;SDS011;11878;51.774;7.220;2023-02-28T20:07:27;27.23;;;12.53;;
23410;SDS011;11878;51.774;7.220;2023-02-28T20:10:28;27.93;;;12.07;;
23410;SDS011;11878;51.774;7.220;2023-02-28T20:13:31;30.20;;;11.10;;
23410;SDS011;11878;51.774;7.220;2023-02-28T20:16:33;23.37;;;10.40;;
23410;SDS011;11878;51.774;7.220;2023-02-28T20:19:34;20.27;;;10.60;;
23410;SDS011;11878;51.774;7.220;2023-02-28T20:22:37;20.47;;;10.13;;
23410;SDS011;11878;51.774;7.220;2023-02-28T20:25:39;21.30;;;9.93;;
23410;SDS011;11878;51.774;7.220;2023-02-28T20:28:42;23.13;;;9.60;;
23410;SDS011;11878;51.774;7.220;2023-02-28T20:31:44;22.33;;;9.93;;
23410;SDS011;11878;51.774;7.220;2023-02-28T20:34:45;21.47;;;9.43;;
23410;SDS011;11878;51.774;7.220;2023-02-28T20:37:47;11.07;;;5.90;;
23410;SDS011;11878;51.774;7.220;2023-02-28T20:40:52;19.63;;;8.53;;
23410;SDS011;11878;51.774;7.220;2023-02-28T20:43:58;14.53;;;7.60;;
23410;SDS011;11878;51.774;7.220;2023-02-28T20:47:02;20.30;;;8.20;;
23410;SDS011;11878;51.774;7.220;2023-02-28T20:50:04;13.03;;;7.63;;
23410;SDS011;11878;51.774;7.220;2023-02-28T20:53:07;11.87;;;6.03;;
23410;SDS011;11878;51.774;7.220;2023-02-28T20:56:10;14.47;;;5.53;;
23410;SDS011;11878;51.774;7.220;2023-02-28T20:59:14;10.63;;;5.40;;
23410;SDS011;11878;51.774;7.220;2023-02-28T21:02:16;13.20;;;5.87;;
23410;SDS011;11878;51.774;7.220;2023-02-28T21:05:19;13.43;;;6.17;;
23410;SDS011;11878;51.774;7.220;2023-02-28T21:08:21;14.10;;;5.77;;
23410;SDS011;11878;51.774;7.220;2023-02-28T21:11:30;12.43;;;5.80;;
23410;SDS011;11878;51.774;7.220;2023-02-28T21:14:33;9.23;;;4.90;;
23410;SDS011;11878;51.774;7.220;2023-02-28T21:17:35;10.87;;;5.70;;